createdAt,value
2022-10-12T00:00:58.979Z,22.02
2022-10-12T00:02:04.148Z,21.08
2022-10-12T00:03:06.467Z,20.35
2022-10-12T00:04:13.962Z,20.70
2022-10-12T00:05:16.555Z,21.60
2022-10-12T00:06:23.561Z,23.85
2022-10-12T00:07:25.809Z,19.88
2022-10-12T00:08:30.849Z,20.60
2022-10-12T00:09:36.161Z,19.10
2022-10-12T00:10:44.480Z,19.15
2022-10-12T00:11:52.326Z,20.70
2022-10-12T00:12:56.474Z,19.95
2022-10-12T00:14:04.247Z,21.35
2022-10-12T00:15:07.495Z,20.25
2022-10-12T00:16:18.204Z,20.90
2022-10-12T00:17:20.478Z,20.45
2022-10-12T00:18:25.583Z,21.35
2022-10-12T00:19:30.621Z,20.27
2022-10-12T00:20:35.837Z,20.58
2022-10-12T00:21:39.378Z,21.85
2022-10-12T00:22:44.392Z,21.65
2022-10-12T00:23:47.208Z,21.58
2022-10-12T00:24:52.199Z,22.15
2022-10-12T00:25:54.462Z,22.10
2022-10-12T00:26:59.186Z,22.48
2022-10-12T00:28:01.519Z,23.90
2022-10-12T00:29:07.208Z,23.55
2022-10-12T00:30:11.401Z,22.75
2022-10-12T00:31:18.943Z,22.45
2022-10-12T00:32:23.791Z,23.50
2022-10-12T00:33:27.775Z,23.38
2022-10-12T00:34:35.285Z,21.77
2022-10-12T00:35:37.531Z,22.48
2022-10-12T00:36:42.443Z,24.00
2022-10-12T00:37:44.693Z,23.17
2022-10-12T00:38:51.757Z,22.23
2022-10-12T00:39:54.099Z,23.95
2022-10-12T00:40:58.783Z,23.65
2022-10-12T00:42:01.096Z,24.67
2022-10-12T00:43:06.024Z,24.77
2022-10-12T00:44:39.272Z,24.05
2022-10-12T00:45:44.021Z,24.75
2022-10-12T00:46:46.975Z,28.60
2022-10-12T00:47:54.181Z,32.17
2022-10-12T00:48:59.744Z,30.48
2022-10-12T00:50:12.959Z,31.55
2022-10-12T00:51:17.239Z,35.58
2022-10-12T00:52:26.064Z,33.97
2022-10-12T00:53:33.102Z,35.20
2022-10-12T00:54:42.564Z,34.22
2022-10-12T00:55:50.043Z,31.60
2022-10-12T00:56:59.910Z,34.75
2022-10-12T00:58:06.126Z,28.98
2022-10-12T00:59:12.985Z,29.13
2022-10-12T01:00:18.768Z,28.45
2022-10-12T01:01:22.222Z,27.20
2022-10-12T01:02:29.259Z,29.50
2022-10-12T01:03:35.197Z,28.92
2022-10-12T01:04:41.858Z,30.58
2022-10-12T01:05:46.635Z,27.77
2022-10-12T01:06:54.681Z,29.88
2022-10-12T01:07:57.176Z,28.52
2022-10-12T01:09:02.536Z,28.33
2022-10-12T01:10:05.848Z,29.13
2022-10-12T01:11:11.868Z,30.30
2022-10-12T01:12:14.277Z,30.48
2022-10-12T01:13:19.613Z,30.70
2022-10-12T01:14:21.892Z,27.98
2022-10-12T01:15:32.172Z,30.92
2022-10-12T01:16:43.113Z,30.98
2022-10-12T01:17:59.072Z,31.10
2022-10-12T01:19:15.546Z,30.45
2022-10-12T01:20:39.686Z,30.60
2022-10-12T01:21:51.551Z,31.08
2022-10-12T01:23:20.711Z,32.45
2022-10-12T01:24:54.526Z,32.08
2022-10-12T01:26:17.139Z,33.30
2022-10-12T01:27:36.213Z,30.95
2022-10-12T01:28:49.255Z,32.63
2022-10-12T01:30:19.778Z,34.33
2022-10-12T01:31:32.725Z,33.47
2022-10-12T01:32:46.591Z,33.38
2022-10-12T01:33:59.761Z,32.40
2022-10-12T01:35:06.587Z,32.33
2022-10-12T01:36:18.463Z,34.10
2022-10-12T01:37:28.269Z,31.98
2022-10-12T01:38:44.361Z,33.38
2022-10-12T01:39:52.465Z,32.13
2022-10-12T01:41:03.346Z,32.28
2022-10-12T01:42:11.342Z,31.17
2022-10-12T01:43:19.684Z,32.25
2022-10-12T01:44:22.630Z,30.65
2022-10-12T01:45:30.133Z,32.28
2022-10-12T01:46:45.786Z,32.10
2022-10-12T01:47:52.939Z,30.58
2022-10-12T01:48:58.265Z,29.45
2022-10-12T01:50:04.725Z,31.55
2022-10-12T01:51:08.805Z,31.65
2022-10-12T01:52:33.037Z,32.75
2022-10-12T01:53:44.170Z,33.10
2022-10-12T01:55:13.515Z,32.40
2022-10-12T01:56:24.326Z,32.33
2022-10-12T01:57:36.520Z,31.60
2022-10-12T01:59:00.095Z,32.50
2022-10-12T02:00:06.406Z,31.10
2022-10-12T02:01:22.181Z,32.08
2022-10-12T02:02:32.667Z,31.20
2022-10-12T02:03:44.545Z,31.17
2022-10-12T02:04:53.040Z,31.23
2022-10-12T02:06:03.584Z,32.08
2022-10-12T02:07:14.106Z,33.33
2022-10-12T02:08:25.537Z,34.10
2022-10-12T02:09:32.685Z,33.35
2022-10-12T02:10:38.963Z,33.55
2022-10-12T02:11:46.616Z,32.50
2022-10-12T02:12:51.946Z,33.85
2022-10-12T02:14:03.962Z,31.48
2022-10-12T02:15:08.687Z,31.52
2022-10-12T02:16:18.909Z,30.75
2022-10-12T02:17:23.644Z,32.42
2022-10-12T02:18:30.203Z,32.17
2022-10-12T02:19:39.867Z,30.67
2022-10-12T02:20:45.546Z,29.75
2022-10-12T02:21:49.341Z,31.75
2022-10-12T02:22:55.297Z,31.27
2022-10-12T02:24:00.499Z,30.05
2022-10-12T02:25:09.138Z,31.55
2022-10-12T02:26:13.621Z,29.75
2022-10-12T02:27:21.163Z,31.83
2022-10-12T02:28:26.843Z,30.48
2022-10-12T02:29:36.906Z,30.25
2022-10-12T02:30:47.912Z,28.92
2022-10-12T02:31:59.600Z,28.63
2022-10-12T02:34:14.982Z,25.58
2022-10-12T02:35:24.514Z,25.95
2022-10-12T02:36:37.244Z,25.92
2022-10-12T02:37:43.011Z,26.75
2022-10-12T02:38:56.552Z,27.30
2022-10-12T02:40:05.444Z,23.60
2022-10-12T02:41:15.342Z,23.38
2022-10-12T02:42:22.038Z,22.88
2022-10-12T02:43:30.931Z,23.70
2022-10-12T02:44:37.607Z,23.77
2022-10-12T02:45:46.451Z,24.83
2022-10-12T02:46:50.570Z,22.27
2022-10-12T02:48:00.917Z,26.15
2022-10-12T02:49:04.647Z,26.42
2022-10-12T02:50:12.453Z,28.58
2022-10-12T02:51:14.910Z,31.33
2022-10-12T02:52:19.609Z,32.72
2022-10-12T02:53:23.373Z,34.47
2022-10-12T02:54:28.402Z,34.50
2022-10-12T02:55:30.890Z,35.47
2022-10-12T02:56:35.762Z,38.92
2022-10-12T02:57:38.072Z,39.08
2022-10-12T02:58:45.954Z,36.72
2022-10-12T02:59:50.844Z,36.17
2022-10-12T03:00:55.936Z,36.85
2022-10-12T03:01:58.314Z,37.92
2022-10-12T03:03:05.746Z,40.47
2022-10-12T03:04:08.276Z,37.58
2022-10-12T03:05:13.131Z,38.35
2022-10-12T03:06:15.619Z,36.20
2022-10-12T03:07:20.584Z,37.50
2022-10-12T03:08:22.829Z,38.13
2022-10-12T03:09:27.814Z,39.10
2022-10-12T03:10:29.965Z,38.33
2022-10-12T03:11:34.988Z,38.97
2022-10-12T03:12:39.958Z,41.42
2022-10-12T03:13:42.202Z,42.00
2022-10-12T03:14:47.033Z,41.65
2022-10-12T03:15:49.193Z,43.42
2022-10-12T03:16:53.858Z,42.30
2022-10-12T03:17:56.037Z,42.20
2022-10-12T03:19:03.356Z,42.20
2022-10-12T03:20:06.728Z,42.47
2022-10-12T03:21:11.421Z,40.90
2022-10-12T03:22:13.458Z,40.42
2022-10-12T03:23:18.132Z,40.90
2022-10-12T03:24:20.256Z,40.17
2022-10-12T03:25:24.964Z,40.58
2022-10-12T03:26:27.187Z,38.45
2022-10-12T03:27:31.870Z,39.10
2022-10-12T03:28:34.807Z,39.53
2022-10-12T03:29:39.628Z,40.45
2022-10-12T03:30:43.080Z,41.88
2022-10-12T03:31:47.823Z,40.85
2022-10-12T03:32:50.029Z,40.97
2022-10-12T03:33:54.983Z,42.83
2022-10-12T03:34:59.843Z,43.33
2022-10-12T03:36:04.859Z,45.70
2022-10-12T03:37:09.582Z,44.80
2022-10-12T03:38:12.057Z,44.15
2022-10-12T03:39:16.909Z,45.33
2022-10-12T03:40:19.002Z,46.20
2022-10-12T03:41:23.702Z,45.38
2022-10-12T03:42:26.059Z,44.95
2022-10-12T03:43:31.000Z,46.17
2022-10-12T03:44:33.159Z,45.30
2022-10-12T03:45:38.080Z,45.50
2022-10-12T03:46:40.293Z,44.50
2022-10-12T03:47:45.144Z,42.92
2022-10-12T03:48:47.367Z,43.38
2022-10-12T03:49:52.379Z,45.92
2022-10-12T03:50:57.227Z,46.13
2022-10-12T03:52:01.913Z,45.13
2022-10-12T03:53:05.560Z,44.78
2022-10-12T03:54:10.340Z,45.28
2022-10-12T03:55:13.433Z,47.80
2022-10-12T03:56:18.694Z,44.20
2022-10-12T03:57:21.054Z,43.67
2022-10-12T03:58:26.292Z,45.47
2022-10-12T03:59:28.755Z,42.25
2022-10-12T04:00:33.646Z,41.95
2022-10-12T04:01:36.148Z,43.38
2022-10-12T04:02:40.979Z,40.35
2022-10-12T04:03:43.351Z,43.70
2022-10-12T04:04:52.188Z,41.90
2022-10-12T04:05:58.369Z,42.75
2022-10-12T04:07:03.151Z,41.95
2022-10-12T04:08:06.039Z,40.60
2022-10-12T04:09:11.589Z,42.58
2022-10-12T04:10:13.834Z,41.83
2022-10-12T04:11:20.500Z,42.38
2022-10-12T04:12:22.784Z,40.95
2022-10-12T04:13:30.445Z,40.15
2022-10-12T04:14:32.626Z,38.80
2022-10-12T04:15:37.297Z,42.38
2022-10-12T04:16:39.536Z,40.72
2022-10-12T04:17:44.209Z,43.70
2022-10-12T04:18:46.455Z,44.53
2022-10-12T04:19:51.461Z,50.20
2022-10-12T04:20:56.492Z,47.88
2022-10-12T04:22:01.436Z,58.00
2022-10-12T04:23:03.794Z,49.25
2022-10-12T04:24:09.678Z,50.25
2022-10-12T04:25:12.394Z,46.70
2022-10-12T04:26:17.303Z,53.10
2022-10-12T04:27:19.466Z,46.95
2022-10-12T04:28:24.343Z,46.05
2022-10-12T04:29:26.951Z,246.27
2022-10-12T04:30:33.273Z,45.13
2022-10-12T04:31:35.386Z,46.58
2022-10-12T04:32:40.259Z,46.03
2022-10-12T04:33:42.266Z,43.15
2022-10-12T04:34:47.267Z,43.38
2022-10-12T04:35:49.435Z,43.92
2022-10-12T04:36:56.748Z,44.38
2022-10-12T04:37:59.063Z,43.08
2022-10-12T04:39:03.774Z,79.57
2022-10-12T04:40:07.417Z,43.60
2022-10-12T04:41:12.009Z,41.60
2022-10-12T04:42:14.035Z,41.22
2022-10-12T04:43:19.564Z,42.55
2022-10-12T04:44:21.731Z,42.08
2022-10-12T04:45:29.593Z,41.38
2022-10-12T04:46:31.755Z,43.58
2022-10-12T04:47:37.530Z,41.70
2022-10-12T04:48:40.038Z,42.65
2022-10-12T04:49:44.860Z,41.50
2022-10-12T04:50:46.995Z,39.72
2022-10-12T04:52:04.470Z,41.88
2022-10-12T04:53:12.978Z,38.70
2022-10-12T04:54:20.595Z,174.80
2022-10-12T04:55:22.936Z,40.53
2022-10-12T04:56:31.103Z,45.75
2022-10-12T04:57:33.333Z,43.45
2022-10-12T04:58:41.792Z,42.60
2022-10-12T04:59:46.949Z,41.97
2022-10-12T05:00:54.206Z,40.03
2022-10-12T05:01:56.663Z,40.35
2022-10-12T05:03:04.751Z,40.70
2022-10-12T05:04:10.040Z,160.32
2022-10-12T05:05:15.078Z,38.65
2022-10-12T05:06:18.524Z,38.60
2022-10-12T05:07:26.345Z,39.08
2022-10-12T05:08:31.738Z,39.15
2022-10-12T05:09:34.010Z,37.40
2022-10-12T05:10:38.813Z,38.10
2022-10-12T05:11:40.964Z,38.13
2022-10-12T05:12:45.740Z,40.92
2022-10-12T05:13:50.167Z,39.83
2022-10-12T05:14:54.870Z,38.20
2022-10-12T05:15:57.100Z,40.35
2022-10-12T05:17:01.843Z,38.83
2022-10-12T05:18:04.153Z,41.75
2022-10-12T05:19:10.398Z,40.30
2022-10-12T05:20:12.877Z,41.30
2022-10-12T05:21:17.654Z,44.20
2022-10-12T05:22:22.403Z,47.55
2022-10-12T05:23:27.076Z,48.40
2022-10-12T05:24:29.193Z,48.40
2022-10-12T05:25:35.411Z,50.38
2022-10-12T05:26:37.489Z,50.72
2022-10-12T05:27:42.421Z,49.42
2022-10-12T05:28:47.538Z,52.45
2022-10-12T05:29:49.756Z,51.58
2022-10-12T05:30:55.069Z,51.67
2022-10-12T05:31:59.711Z,45.50
2022-10-12T05:33:01.796Z,47.92
2022-10-12T05:34:06.733Z,49.92
2022-10-12T05:35:12.431Z,48.90
2022-10-12T05:36:14.957Z,51.05
2022-10-12T05:37:21.327Z,50.15
2022-10-12T05:38:26.332Z,50.85
2022-10-12T05:39:31.331Z,50.10
2022-10-12T05:40:33.709Z,51.63
2022-10-12T05:41:38.396Z,52.80
2022-10-12T05:42:43.630Z,52.42
2022-10-12T05:43:49.644Z,123.15
2022-10-12T05:44:51.994Z,148.75
2022-10-12T05:45:56.738Z,222.93
2022-10-12T05:46:59.370Z,50.83
2022-10-12T05:48:04.046Z,51.47
2022-10-12T05:49:06.985Z,52.60
2022-10-12T05:50:14.833Z,51.63
2022-10-12T05:51:16.950Z,51.20
2022-10-12T05:52:21.790Z,49.47
2022-10-12T05:53:26.577Z,53.30
2022-10-12T05:54:33.382Z,52.35
2022-10-12T05:55:40.478Z,51.65
2022-10-12T05:56:44.272Z,52.83
2022-10-12T05:57:52.002Z,52.55
2022-10-12T05:58:54.219Z,52.35
2022-10-12T05:59:59.154Z,51.38
2022-10-12T06:01:06.252Z,51.83
2022-10-12T06:02:16.570Z,50.85
2022-10-12T06:03:25.763Z,50.67
2022-10-12T06:04:31.152Z,51.33
2022-10-12T06:05:33.422Z,50.83
2022-10-12T06:06:38.108Z,50.05
2022-10-12T06:07:40.330Z,52.55
2022-10-12T06:08:47.805Z,51.00
2022-10-12T06:09:50.437Z,52.42
2022-10-12T06:10:58.100Z,50.53
2022-10-12T06:12:05.513Z,50.25
2022-10-12T06:13:10.419Z,51.28
2022-10-12T06:14:12.952Z,53.45
2022-10-12T06:15:20.981Z,156.63
2022-10-12T06:16:25.138Z,135.45
2022-10-12T06:17:32.226Z,111.78
2022-10-12T06:18:34.508Z,49.97
2022-10-12T06:19:39.378Z,49.85
2022-10-12T06:20:49.191Z,49.63
2022-10-12T06:21:56.940Z,304.10
2022-10-12T06:22:59.487Z,92.10
2022-10-12T06:24:07.365Z,346.58
2022-10-12T06:25:12.719Z,45.90
2022-10-12T06:26:19.147Z,46.40
2022-10-12T06:27:26.044Z,54.95
2022-10-12T06:28:28.910Z,46.97
2022-10-12T06:29:34.149Z,44.20
2022-10-12T06:30:36.368Z,121.85
2022-10-12T06:31:41.290Z,318.48
2022-10-12T06:32:53.434Z,207.85
2022-10-12T06:33:58.447Z,42.78
2022-10-12T06:35:00.816Z,42.25
2022-10-12T06:36:08.425Z,41.58
2022-10-12T06:37:20.473Z,39.80
2022-10-12T06:38:35.326Z,37.15
2022-10-12T06:39:44.453Z,41.88
2022-10-12T06:40:50.635Z,41.63
2022-10-12T06:41:54.335Z,54.28
2022-10-12T06:43:02.754Z,69.13
2022-10-12T06:44:05.646Z,107.20
2022-10-12T06:45:11.734Z,128.90
2022-10-12T06:46:18.179Z,220.43
2022-10-12T06:47:20.910Z,125.80
2022-10-12T06:48:25.752Z,105.00
2022-10-12T06:49:29.229Z,94.85
2022-10-12T06:50:34.465Z,186.63
2022-10-12T06:51:40.435Z,166.95
2022-10-12T06:52:43.800Z,86.35
2022-10-12T06:53:48.627Z,90.03
2022-10-12T06:54:54.591Z,61.90
2022-10-12T06:56:02.094Z,35.13
2022-10-12T06:57:08.622Z,74.40
2022-10-12T06:58:10.883Z,111.28
2022-10-12T06:59:16.287Z,66.40
2022-10-12T07:00:18.729Z,186.88
2022-10-12T07:01:23.570Z,213.38
2022-10-12T07:02:25.761Z,171.73
2022-10-12T07:03:30.516Z,149.43
2022-10-12T07:04:32.810Z,299.63
2022-10-12T07:05:37.407Z,463.92
2022-10-12T07:06:39.528Z,315.38
2022-10-12T07:07:44.227Z,236.20
2022-10-12T07:08:46.882Z,295.33
2022-10-12T07:09:51.991Z,645.05
2022-10-12T07:11:03.310Z,752.30
2022-10-12T07:12:08.226Z,743.35
2022-10-12T07:13:10.241Z,744.70
2022-10-12T07:14:14.991Z,84.15
2022-10-12T07:15:20.170Z,755.22
2022-10-12T07:16:22.291Z,739.00
2022-10-12T07:17:27.164Z,719.78
2022-10-12T07:18:29.630Z,738.42
2022-10-12T07:19:34.239Z,704.05
2022-10-12T07:20:36.837Z,437.05
2022-10-12T07:21:42.286Z,90.60
2022-10-12T07:22:44.845Z,375.35
2022-10-12T07:23:49.686Z,744.85
2022-10-12T07:24:51.774Z,750.08
2022-10-12T07:25:56.995Z,757.17
2022-10-12T07:27:40.318Z,760.38
2022-10-12T07:29:00.068Z,729.05
2022-10-12T07:31:35.052Z,718.47
2022-10-12T07:32:50.382Z,720.85
2022-10-12T07:34:25.605Z,732.67
2022-10-12T07:35:56.927Z,749.35
2022-10-12T07:37:19.988Z,738.13
2022-10-12T07:38:36.357Z,735.25
2022-10-12T07:39:53.192Z,766.08
2022-10-12T07:41:01.906Z,760.35
2022-10-12T07:42:26.108Z,619.75
2022-10-12T07:45:38.677Z,785.40
2022-10-12T07:47:01.044Z,784.72
2022-10-12T07:48:13.599Z,801.50
2022-10-12T07:49:19.425Z,810.78
2022-10-12T07:50:21.730Z,810.85
2022-10-12T07:51:26.640Z,812.25
2022-10-12T07:52:28.873Z,804.72
2022-10-12T07:53:33.585Z,42.97
2022-10-12T07:54:38.392Z,845.17
2022-10-12T07:55:43.247Z,839.03
2022-10-12T07:56:47.912Z,829.70
2022-10-12T07:57:55.228Z,835.95
2022-10-12T07:58:59.425Z,848.78
2022-10-12T08:00:04.183Z,840.20
2022-10-12T08:01:07.681Z,859.08
2022-10-12T08:02:13.773Z,844.70
2022-10-12T08:03:18.449Z,865.72
2022-10-12T08:04:23.076Z,865.53
2022-10-12T08:05:25.110Z,858.35
2022-10-12T08:06:31.866Z,592.78
2022-10-12T08:07:34.115Z,787.85
2022-10-12T08:08:38.982Z,860.28
2022-10-12T08:09:45.563Z,885.88
2022-10-12T08:10:49.207Z,866.78
2022-10-12T08:11:54.050Z,869.70
2022-10-12T08:13:01.335Z,870.00
2022-10-12T08:14:09.011Z,868.97
2022-10-12T08:15:14.110Z,850.63
2022-10-12T08:16:25.337Z,600.78
2022-10-12T08:23:27.095Z,849.28
2022-10-12T08:24:33.561Z,836.95
2022-10-12T08:25:38.235Z,498.95
2022-10-12T08:26:44.728Z,298.00
2022-10-12T08:27:49.686Z,532.53
2022-10-12T08:28:56.023Z,865.28
2022-10-12T08:30:02.182Z,876.45
2022-10-12T08:31:14.398Z,832.88
2022-10-12T08:32:18.107Z,839.60
2022-10-12T08:33:28.231Z,843.63
2022-10-12T08:34:34.707Z,837.60
2022-10-12T08:35:38.461Z,840.95
2022-10-12T08:36:44.159Z,828.40
2022-10-12T08:37:47.443Z,826.80
2022-10-12T08:38:55.982Z,834.47
2022-10-12T08:40:07.056Z,840.15
2022-10-12T08:41:44.271Z,848.30
2022-10-12T08:43:02.441Z,816.35
2022-10-12T08:44:25.045Z,805.53
2022-10-12T08:45:38.471Z,781.75
2022-10-12T08:46:40.671Z,800.10
2022-10-12T08:47:51.585Z,801.97
2022-10-12T08:49:02.374Z,849.25
2022-10-12T08:50:10.797Z,819.90
2022-10-12T08:51:19.063Z,870.90
2022-10-12T08:52:33.803Z,845.67
2022-10-12T08:53:45.170Z,821.45
2022-10-12T08:54:49.849Z,824.72
2022-10-12T08:55:56.581Z,820.20
2022-10-12T08:56:58.766Z,821.80
2022-10-12T08:58:03.541Z,809.60
2022-10-12T08:59:08.911Z,801.47
2022-10-12T09:00:16.192Z,801.75
2022-10-12T09:01:28.775Z,819.67
2022-10-12T09:02:47.220Z,795.85
2022-10-12T09:04:07.867Z,795.00
2022-10-12T09:05:18.175Z,812.53
2022-10-12T09:06:24.937Z,809.55
2022-10-12T09:07:29.554Z,805.50
2022-10-12T09:08:48.857Z,821.15
2022-10-12T09:10:10.875Z,879.33
2022-10-12T09:12:45.977Z,847.33
2022-10-12T09:13:58.545Z,852.97
2022-10-12T09:15:05.934Z,849.25
2022-10-12T09:16:22.624Z,900.72
2022-10-12T09:17:32.950Z,884.33
2022-10-12T09:18:42.125Z,862.33
2022-10-12T09:19:44.152Z,885.88
2022-10-12T09:20:51.208Z,898.63
2022-10-12T09:21:55.853Z,904.60
2022-10-12T09:23:04.764Z,888.95
2022-10-12T09:24:15.563Z,884.83
2022-10-12T09:25:22.345Z,870.38
2022-10-12T09:26:35.993Z,892.17
2022-10-12T09:27:45.104Z,893.03
2022-10-12T09:28:53.942Z,891.88
2022-10-12T09:30:02.018Z,622.28
2022-10-12T09:31:27.218Z,864.92
2022-10-12T09:33:05.948Z,18.27
2022-10-12T09:34:14.442Z,19.58
2022-10-12T09:35:20.429Z,334.08
2022-10-12T09:36:27.511Z,908.33
2022-10-12T09:37:34.707Z,912.58
2022-10-12T09:38:38.318Z,903.10
2022-10-12T09:39:43.004Z,904.03
2022-10-12T09:40:48.341Z,888.65
2022-10-12T09:41:52.961Z,886.47
2022-10-12T09:43:00.874Z,872.90
2022-10-12T09:44:04.320Z,878.80
2022-10-12T09:45:19.030Z,879.20
2022-10-12T09:46:36.712Z,781.78
2022-10-12T09:47:41.484Z,533.67
2022-10-12T09:49:00.780Z,477.35
2022-10-12T09:50:07.312Z,158.43
2022-10-12T09:51:14.253Z,26.50
2022-10-12T09:52:20.683Z,38.25
2022-10-12T09:53:31.340Z,35.85
2022-10-12T09:54:36.618Z,21.95
2022-10-12T09:55:38.945Z,24.20
2022-10-12T09:56:45.881Z,23.67
2022-10-12T09:57:57.251Z,21.05
2022-10-12T09:59:02.472Z,18.10
2022-10-12T10:00:09.948Z,20.52
2022-10-12T10:01:19.435Z,49.28
2022-10-12T10:02:27.831Z,19.00
2022-10-12T10:03:30.726Z,42.33
2022-10-12T10:04:36.602Z,107.43
2022-10-12T10:05:39.082Z,173.48
2022-10-12T10:06:46.527Z,346.20
2022-10-12T10:07:48.572Z,429.52
2022-10-12T10:08:53.277Z,203.38
2022-10-12T10:10:16.968Z,437.02
2022-10-12T10:11:23.470Z,55.05
2022-10-12T10:12:29.958Z,312.63
2022-10-12T10:13:35.606Z,340.05
2022-10-12T10:14:40.599Z,374.02
2022-10-12T10:15:46.241Z,629.33
2022-10-12T10:16:53.143Z,408.00
2022-10-12T10:18:02.966Z,179.75
2022-10-12T10:19:05.180Z,122.38
2022-10-12T10:20:25.089Z,28.52
2022-10-12T10:21:36.274Z,187.52
2022-10-12T10:22:47.758Z,161.23
2022-10-12T10:23:55.404Z,101.10
2022-10-12T10:25:01.802Z,327.15
2022-10-12T10:26:06.727Z,578.67
2022-10-12T10:27:31.421Z,485.48
2022-10-12T10:28:37.771Z,555.15
2022-10-12T10:29:45.529Z,766.53
2022-10-12T10:30:56.842Z,710.75
2022-10-12T10:32:24.516Z,105.00
2022-10-12T10:33:32.918Z,20.08
2022-10-12T10:34:35.023Z,19.20
2022-10-12T10:35:39.850Z,19.77
2022-10-12T10:36:51.251Z,41.95
2022-10-12T10:37:56.437Z,19.58
2022-10-12T10:39:05.407Z,38.10
2022-10-12T10:40:19.848Z,74.57
2022-10-12T10:41:26.575Z,18.98
2022-10-12T10:42:33.423Z,19.30
2022-10-12T10:43:36.308Z,17.65
2022-10-12T10:45:50.557Z,18.73
2022-10-12T10:46:57.121Z,19.25
2022-10-12T10:48:09.523Z,18.08
2022-10-12T10:49:28.322Z,20.20
2022-10-12T10:50:39.497Z,17.73
2022-10-12T10:51:46.843Z,18.17
2022-10-12T10:52:57.937Z,17.50
2022-10-12T10:54:16.950Z,17.58
2022-10-12T10:55:21.120Z,20.27
2022-10-12T10:56:29.119Z,20.83
2022-10-12T10:57:36.374Z,19.15
2022-10-12T10:58:46.952Z,315.33
2022-10-12T11:00:02.198Z,839.60
2022-10-12T11:01:22.308Z,872.67
2022-10-12T11:02:32.066Z,854.75
2022-10-12T11:03:47.050Z,618.92
2022-10-12T11:05:00.494Z,632.60
2022-10-12T11:06:18.070Z,19.80
2022-10-12T11:07:30.019Z,18.50
2022-10-12T11:08:37.932Z,28.52
2022-10-12T11:09:45.140Z,867.75
2022-10-12T11:10:53.135Z,33.97
2022-10-12T11:12:00.446Z,857.58
2022-10-12T11:13:09.650Z,853.63
2022-10-12T11:14:16.470Z,849.22
2022-10-12T11:15:27.048Z,854.20
2022-10-12T11:16:36.461Z,854.05
2022-10-12T11:17:42.824Z,851.83
2022-10-12T11:18:55.266Z,851.15
2022-10-12T11:20:17.334Z,859.55
2022-10-12T11:21:28.027Z,849.17
2022-10-12T11:22:37.178Z,836.95
2022-10-12T11:23:48.566Z,847.17
2022-10-12T11:24:59.418Z,837.55
2022-10-12T11:26:10.178Z,851.45
2022-10-12T11:27:21.258Z,794.80
2022-10-12T11:28:26.522Z,802.78
2022-10-12T11:29:31.408Z,843.70
2022-10-12T11:30:41.796Z,17.10
2022-10-12T11:31:59.103Z,15.40
2022-10-12T11:33:08.501Z,16.92
2022-10-12T11:34:20.877Z,16.00
2022-10-12T11:35:28.036Z,18.25
2022-10-12T11:36:35.280Z,15.57
2022-10-12T11:37:42.312Z,15.82
2022-10-12T11:38:50.657Z,293.13
2022-10-12T11:39:57.097Z,529.28
2022-10-12T11:41:33.842Z,655.08
2022-10-12T11:42:43.246Z,16.40
2022-10-12T11:43:54.123Z,35.90
2022-10-12T11:44:56.276Z,130.23
2022-10-12T11:46:05.630Z,18.80
2022-10-12T11:47:14.040Z,16.63
2022-10-12T11:48:27.143Z,16.85
2022-10-12T11:49:35.608Z,15.85
2022-10-12T11:50:42.990Z,15.98
2022-10-12T11:51:50.944Z,15.70
2022-10-12T11:52:55.011Z,15.52
2022-10-12T11:54:05.369Z,16.30
2022-10-12T11:55:46.839Z,16.83
2022-10-12T11:56:56.359Z,16.98
2022-10-12T11:58:12.547Z,15.93
2022-10-12T11:59:26.687Z,16.00
2022-10-12T12:00:36.864Z,15.82
2022-10-12T12:01:52.233Z,17.20
2022-10-12T12:03:03.583Z,15.65
2022-10-12T12:04:40.615Z,16.35
2022-10-12T12:05:43.882Z,15.52
2022-10-12T12:06:51.379Z,15.20
2022-10-12T12:07:59.387Z,17.48
2022-10-12T12:09:18.606Z,15.02
2022-10-12T12:10:53.306Z,14.93
2022-10-12T12:12:11.733Z,12.75
2022-10-12T12:13:23.242Z,13.00
2022-10-12T12:14:50.869Z,15.50
2022-10-12T12:16:36.791Z,14.95
2022-10-12T12:17:41.611Z,15.20
2022-10-12T12:19:14.565Z,15.30
2022-10-12T12:20:49.238Z,25.30
2022-10-12T12:22:26.585Z,14.82
2022-10-12T12:23:35.870Z,13.88
2022-10-12T12:24:39.255Z,14.70
2022-10-12T12:25:43.993Z,14.02
2022-10-12T12:26:48.031Z,14.50
2022-10-12T12:27:55.826Z,12.75
2022-10-12T12:29:14.267Z,13.85
2022-10-12T12:30:34.767Z,12.88
2022-10-12T12:31:41.434Z,12.95
2022-10-12T12:32:47.527Z,13.02
2022-10-12T12:34:03.405Z,12.45
2022-10-12T12:35:06.242Z,13.43
2022-10-12T12:36:14.985Z,12.27
2022-10-12T12:37:29.348Z,12.48
2022-10-12T12:38:36.436Z,14.10
2022-10-12T12:39:40.406Z,64.90
2022-10-12T12:40:58.595Z,49.03
2022-10-12T12:42:06.401Z,85.72
2022-10-12T12:43:39.074Z,26.73
2022-10-12T12:44:46.629Z,196.95
2022-10-12T12:45:57.544Z,162.60
2022-10-12T12:47:44.553Z,716.13
2022-10-12T12:48:58.080Z,12.30
2022-10-12T12:50:07.462Z,11.80
2022-10-12T12:51:11.509Z,11.95
2022-10-12T12:52:29.422Z,12.68
2022-10-12T12:53:31.634Z,10.60
2022-10-12T12:54:38.958Z,12.95
2022-10-12T12:56:00.767Z,10.80
2022-10-12T12:57:32.807Z,10.75
2022-10-12T12:58:58.964Z,11.18
2022-10-12T13:00:25.039Z,10.70
2022-10-12T13:01:56.217Z,10.77
2022-10-12T13:03:23.321Z,12.30
2022-10-12T13:04:53.887Z,10.75
2022-10-12T13:06:30.581Z,10.75
2022-10-12T13:08:03.264Z,9.82
2022-10-12T13:09:25.696Z,10.90
2022-10-12T13:10:43.384Z,9.93
2022-10-12T13:12:10.224Z,10.77
2022-10-12T13:13:38.826Z,12.75
2022-10-12T13:15:05.853Z,10.68
2022-10-12T13:17:09.586Z,11.75
2022-10-12T13:18:04.751Z,13.05
2022-10-12T13:19:16.675Z,11.50
2022-10-12T13:20:29.346Z,11.18
2022-10-12T13:21:40.458Z,10.88
2022-10-12T13:22:47.139Z,12.68
2022-10-12T13:23:58.335Z,12.38
2022-10-12T13:25:07.209Z,11.90
2022-10-12T13:26:13.738Z,11.40
2022-10-12T13:27:24.269Z,11.38
2022-10-12T13:28:31.879Z,11.70
2022-10-12T13:29:39.775Z,10.98
2022-10-12T13:30:49.640Z,11.60
2022-10-12T13:31:57.829Z,11.20
2022-10-12T13:33:06.571Z,10.15
2022-10-12T13:34:19.240Z,11.00
2022-10-12T13:35:31.047Z,10.75
2022-10-12T13:36:39.534Z,13.32
2022-10-12T13:37:41.554Z,12.65
2022-10-12T13:38:48.689Z,10.77
2022-10-12T13:39:54.383Z,11.75
2022-10-12T13:41:09.547Z,11.38
2022-10-12T13:42:19.552Z,11.27
2022-10-12T13:43:31.541Z,11.68
2022-10-12T13:44:38.863Z,11.02
2022-10-12T13:45:45.015Z,10.30
2022-10-12T13:46:51.649Z,11.15
2022-10-12T13:48:05.789Z,11.70
2022-10-12T13:49:17.533Z,12.45
2022-10-12T13:50:23.896Z,12.07
2022-10-12T13:51:28.677Z,10.88
2022-10-12T13:52:35.805Z,11.55
2022-10-12T13:53:39.723Z,11.45
2022-10-12T13:54:48.944Z,11.38
2022-10-12T13:55:55.394Z,9.88
2022-10-12T13:57:03.649Z,10.18
2022-10-12T13:58:05.752Z,11.38
2022-10-12T13:59:19.217Z,10.02
2022-10-12T14:00:28.469Z,9.10
2022-10-12T14:01:30.574Z,9.75
2022-10-12T14:02:35.353Z,9.32
2022-10-12T14:03:40.190Z,10.23
2022-10-12T14:04:46.202Z,11.05
2022-10-12T14:05:55.693Z,9.60
2022-10-12T14:07:05.783Z,9.65
2022-10-12T14:08:15.875Z,9.30
2022-10-12T14:09:23.875Z,9.55
2022-10-12T14:10:33.210Z,9.50
2022-10-12T14:11:36.194Z,9.13
2022-10-12T14:12:42.313Z,9.60
2022-10-12T14:13:47.483Z,8.68
2022-10-12T14:14:53.056Z,8.38
2022-10-12T14:15:55.935Z,8.35
2022-10-12T14:17:00.734Z,8.90
2022-10-12T14:18:03.704Z,9.52
2022-10-12T14:19:22.196Z,9.30
2022-10-12T14:20:33.230Z,9.68
2022-10-12T14:21:36.934Z,9.68
2022-10-12T14:22:42.161Z,9.50
2022-10-12T14:23:49.193Z,9.57
2022-10-12T14:24:58.558Z,8.15
2022-10-12T14:26:03.320Z,8.40
2022-10-12T14:27:11.070Z,8.18
2022-10-12T14:28:35.498Z,8.57
2022-10-12T14:29:45.645Z,8.55
2022-10-12T14:30:52.885Z,9.23
2022-10-12T14:31:59.661Z,7.93
2022-10-12T14:33:15.413Z,9.32
2022-10-12T14:34:45.393Z,8.80
2022-10-12T14:35:51.639Z,8.52
2022-10-12T14:37:01.018Z,8.65
2022-10-12T14:38:39.025Z,8.90
2022-10-12T14:39:41.745Z,8.88
2022-10-12T14:40:46.675Z,8.25
2022-10-12T14:41:52.476Z,8.30
2022-10-12T14:43:01.678Z,8.90
2022-10-12T14:44:13.923Z,8.23
2022-10-12T14:45:24.026Z,9.05
2022-10-12T14:46:29.570Z,9.93
2022-10-12T14:47:36.435Z,8.80
2022-10-12T14:48:43.811Z,8.77
2022-10-12T14:49:47.935Z,8.25